sensor_id;sensor_type;location;lat;lon;timestamp;pressure;altitude;pressure_sealevel;temperature;humidity
30636;BME280;17400;52.392;9.750;2023-07-31T00:02:05;100381.78;;;18.06;100.00
30636;BME280;17400;52.392;9.750;2023-07-31T00:04:33;100377.13;;;18.07;100.00
30636;BME280;17400;52.392;9.750;2023-07-31T00:07:00;100375.22;;;18.07;100.00
30636;BME280;17400;52.392;9.750;2023-07-31T00:09:31;100366.88;;;17.97;100.00
30636;BME280;17400;52.392;9.750;2023-07-31T00:11:58;100369.09;;;18.00;100.00
30636;BME280;17400;52.392;9.750;2023-07-31T00:14:27;100374.13;;;18.08;100.00
30636;BME280;17400;52.392;9.750;2023-07-31T00:16:56;100379.66;;;18.13;100.00
30636;BME280;17400;52.392;9.750;2023-07-31T00:19:24;100372.31;;;18.14;100.00
30636;BME280;17400;52.392;9.750;2023-07-31T00:21:51;100369.63;;;18.19;100.00
30636;BME280;17400;52.392;9.750;2023-07-31T00:24:19;100364.44;;;18.23;100.00
30636;BME280;17400;52.392;9.750;2023-07-31T00:26:47;100367.75;;;18.25;100.00
30636;BME280;17400;52.392;9.750;2023-07-31T00:29:15;100365.28;;;18.23;100.00
30636;BME280;17400;52.392;9.750;2023-07-31T00:31:43;100364.16;;;18.19;100.00
30636;BME280;17400;52.392;9.750;2023-07-31T00:34:12;100360.88;;;18.22;100.00
30636;BME280;17400;52.392;9.750;2023-07-31T00:36:40;100361.13;;;18.21;100.00
30636;BME280;17400;52.392;9.750;2023-07-31T00:39:08;100369.66;;;18.24;100.00
30636;BME280;17400;52.392;9.750;2023-07-31T00:41:36;100357.34;;;18.27;100.00
30636;BME280;17400;52.392;9.750;2023-07-31T00:44:04;100354.13;;;18.30;100.00
30636;BME280;17400;52.392;9.750;2023-07-31T00:46:32;100345.06;;;18.29;100.00
30636;BME280;17400;52.392;9.750;2023-07-31T00:49:00;100349.97;;;18.27;100.00
30636;BME280;17400;52.392;9.750;2023-07-31T00:51:30;100339.50;;;18.24;100.00
30636;BME280;17400;52.392;9.750;2023-07-31T00:53:58;100333.94;;;18.14;100.00
30636;BME280;17400;52.392;9.750;2023-07-31T00:56:27;100328.09;;;18.05;100.00
30636;BME280;17400;52.392;9.750;2023-07-31T00:58:55;100321.16;;;17.97;100.00
30636;BME280;17400;52.392;9.750;2023-07-31T01:01:23;100313.81;;;18.03;100.00
30636;BME280;17400;52.392;9.750;2023-07-31T01:03:52;100318.25;;;17.87;100.00
30636;BME280;17400;52.392;9.750;2023-07-31T01:06:32;100305.34;;;17.82;100.00
30636;BME280;17400;52.392;9.750;2023-07-31T01:09:06;100297.84;;;17.73;100.00
30636;BME280;17400;52.392;9.750;2023-07-31T01:11:43;100293.00;;;17.80;100.00
30636;BME280;17400;52.392;9.750;2023-07-31T01:14:15;100296.06;;;17.84;100.00
30636;BME280;17400;52.392;9.750;2023-07-31T01:16:43;100289.44;;;17.79;100.00
30636;BME280;17400;52.392;9.750;2023-07-31T01:19:11;100279.75;;;17.72;100.00
30636;BME280;17400;52.392;9.750;2023-07-31T01:21:58;100273.50;;;17.76;100.00
30636;BME280;17400;52.392;9.750;2023-07-31T01:24:38;100291.66;;;17.82;100.00
30636;BME280;17400;52.392;9.750;2023-07-31T01:27:15;100298.19;;;17.81;100.00
30636;BME280;17400;52.392;9.750;2023-07-31T01:29:52;100289.47;;;17.85;100.00
30636;BME280;17400;52.392;9.750;2023-07-31T01:32:22;100285.66;;;17.86;100.00
30636;BME280;17400;52.392;9.750;2023-07-31T01:34:51;100277.16;;;17.82;100.00
30636;BME280;17400;52.392;9.750;2023-07-31T01:37:20;100269.63;;;17.72;100.00
30636;BME280;17400;52.392;9.750;2023-07-31T01:39:47;100268.47;;;17.68;100.00
30636;BME280;17400;52.392;9.750;2023-07-31T01:42:17;100264.66;;;17.69;100.00
30636;BME280;17400;52.392;9.750;2023-07-31T01:44:45;100262.81;;;17.75;100.00
30636;BME280;17400;52.392;9.750;2023-07-31T01:47:13;100254.59;;;17.75;100.00
30636;BME280;17400;52.392;9.750;2023-07-31T01:49:41;100253.00;;;17.79;100.00
30636;BME280;17400;52.392;9.750;2023-07-31T01:52:12;100252.75;;;17.80;100.00
30636;BME280;17400;52.392;9.750;2023-07-31T01:54:40;100250.31;;;17.84;100.00
30636;BME280;17400;52.392;9.750;2023-07-31T01:57:07;100239.06;;;17.80;100.00
30636;BME280;17400;52.392;9.750;2023-07-31T01:59:37;100241.84;;;17.86;100.00
30636;BME280;17400;52.392;9.750;2023-07-31T02:02:05;100241.22;;;17.78;100.00
30636;BME280;17400;52.392;9.750;2023-07-31T02:04:33;100238.81;;;17.82;100.00
30636;BME280;17400;52.392;9.750;2023-07-31T02:07:01;100249.50;;;17.84;100.00
30636;BME280;17400;52.392;9.750;2023-07-31T02:09:29;100243.72;;;17.80;100.00
30636;BME280;17400;52.392;9.750;2023-07-31T02:11:57;100245.06;;;17.77;100.00
30636;BME280;17400;52.392;9.750;2023-07-31T02:14:24;100246.72;;;17.78;100.00
30636;BME280;17400;52.392;9.750;2023-07-31T02:16:54;100244.44;;;17.70;100.00
30636;BME280;17400;52.392;9.750;2023-07-31T02:19:21;100242.25;;;17.72;100.00
30636;BME280;17400;52.392;9.750;2023-07-31T02:21:49;100238.69;;;17.49;100.00
30636;BME280;17400;52.392;9.750;2023-07-31T02:24:17;100231.56;;;17.48;100.00
30636;BME280;17400;52.392;9.750;2023-07-31T02:26:45;100229.41;;;17.51;100.00
30636;BME280;17400;52.392;9.750;2023-07-31T02:29:14;100226.75;;;17.56;100.00
30636;BME280;17400;52.392;9.750;2023-07-31T02:31:42;100214.66;;;17.52;100.00
30636;BME280;17400;52.392;9.750;2023-07-31T02:34:11;100225.09;;;17.55;100.00
30636;BME280;17400;52.392;9.750;2023-07-31T02:36:39;100220.22;;;17.62;100.00
30636;BME280;17400;52.392;9.750;2023-07-31T02:39:08;100222.75;;;17.69;100.00
30636;BME280;17400;52.392;9.750;2023-07-31T02:41:35;100215.47;;;17.52;100.00
30636;BME280;17400;52.392;9.750;2023-07-31T02:44:04;100216.94;;;17.60;100.00
30636;BME280;17400;52.392;9.750;2023-07-31T02:46:31;100213.28;;;17.54;100.00
30636;BME280;17400;52.392;9.750;2023-07-31T02:48:59;100211.28;;;17.44;100.00
30636;BME280;17400;52.392;9.750;2023-07-31T02:51:28;100219.16;;;17.41;100.00
30636;BME280;17400;52.392;9.750;2023-07-31T02:53:56;100209.69;;;17.48;100.00
30636;BME280;17400;52.392;9.750;2023-07-31T02:56:27;100214.81;;;17.45;100.00
30636;BME280;17400;52.392;9.750;2023-07-31T02:58:55;100216.81;;;17.49;100.00
30636;BME280;17400;52.392;9.750;2023-07-31T03:01:23;100211.34;;;17.49;100.00
30636;BME280;17400;52.392;9.750;2023-07-31T03:03:51;100205.88;;;17.49;100.00
30636;BME280;17400;52.392;9.750;2023-07-31T03:06:20;100215.81;;;17.56;100.00
30636;BME280;17400;52.392;9.750;2023-07-31T03:08:49;100205.41;;;17.58;100.00
30636;BME280;17400;52.392;9.750;2023-07-31T03:11:18;100209.41;;;17.50;100.00
30636;BME280;17400;52.392;9.750;2023-07-31T03:13:46;100207.53;;;17.51;100.00
30636;BME280;17400;52.392;9.750;2023-07-31T03:16:14;100207.53;;;17.51;100.00
30636;BME280;17400;52.392;9.750;2023-07-31T03:18:42;100216.81;;;17.49;100.00
30636;BME280;17400;52.392;9.750;2023-07-31T03:21:10;100218.72;;;17.49;100.00
30636;BME280;17400;52.392;9.750;2023-07-31T03:23:38;100216.56;;;17.51;100.00
30636;BME280;17400;52.392;9.750;2023-07-31T03:26:07;100217.44;;;17.57;100.00
30636;BME280;17400;52.392;9.750;2023-07-31T03:28:35;100220.94;;;17.52;100.00
30636;BME280;17400;52.392;9.750;2023-07-31T03:31:04;100222.03;;;17.51;100.00
30636;BME280;17400;52.392;9.750;2023-07-31T03:33:32;100212.16;;;17.50;100.00
30636;BME280;17400;52.392;9.750;2023-07-31T03:36:00;100213.56;;;17.53;100.00
30636;BME280;17400;52.392;9.750;2023-07-31T03:38:28;100213.06;;;17.56;100.00
30636;BME280;17400;52.392;9.750;2023-07-31T03:40:56;100214.13;;;17.55;100.00
30636;BME280;17400;52.392;9.750;2023-07-31T03:43:26;100218.16;;;17.47;100.00
30636;BME280;17400;52.392;9.750;2023-07-31T03:45:54;100209.34;;;17.45;100.00
30636;BME280;17400;52.392;9.750;2023-07-31T03:48:22;100215.66;;;17.45;100.00
30636;BME280;17400;52.392;9.750;2023-07-31T03:50:50;100209.34;;;17.45;100.00
30636;BME280;17400;52.392;9.750;2023-07-31T03:53:18;100210.53;;;17.49;100.00
30636;BME280;17400;52.392;9.750;2023-07-31T03:55:46;100197.66;;;17.49;100.00
30636;BME280;17400;52.392;9.750;2023-07-31T03:58:14;100203.94;;;17.50;100.00
30636;BME280;17400;52.392;9.750;2023-07-31T04:00:43;100202.88;;;17.51;100.00
30636;BME280;17400;52.392;9.750;2023-07-31T04:03:11;100204.22;;;17.48;100.00
30636;BME280;17400;52.392;9.750;2023-07-31T04:05:39;100202.50;;;17.42;100.00
30636;BME280;17400;52.392;9.750;2023-07-31T04:08:07;100197.19;;;17.36;100.00
30636;BME280;17400;52.392;9.750;2023-07-31T04:10:35;100190.34;;;17.33;100.00
30636;BME280;17400;52.392;9.750;2023-07-31T04:13:03;100197.47;;;17.34;100.00
30636;BME280;17400;52.392;9.750;2023-07-31T04:15:31;100196.44;;;17.40;100.00
30636;BME280;17400;52.392;9.750;2023-07-31T04:18:00;100198.53;;;17.33;100.00
30636;BME280;17400;52.392;9.750;2023-07-31T04:20:28;100197.19;;;17.36;100.00
30636;BME280;17400;52.392;9.750;2023-07-31T04:22:56;100193.53;;;17.47;100.00
30636;BME280;17400;52.392;9.750;2023-07-31T04:25:24;100199.38;;;17.56;100.00
30636;BME280;17400;52.392;9.750;2023-07-31T04:27:52;100188.63;;;17.49;100.00
30636;BME280;17400;52.392;9.750;2023-07-31T04:30:20;100187.28;;;17.52;100.00
30636;BME280;17400;52.392;9.750;2023-07-31T04:32:49;100194.41;;;17.53;100.00
30636;BME280;17400;52.392;9.750;2023-07-31T04:35:18;100183.78;;;17.56;100.00
30636;BME280;17400;52.392;9.750;2023-07-31T04:37:46;100186.31;;;17.63;100.00
30636;BME280;17400;52.392;9.750;2023-07-31T04:40:15;100189.09;;;17.68;100.00
30636;BME280;17400;52.392;9.750;2023-07-31T04:42:44;100184.84;;;17.55;100.00
30636;BME280;17400;52.392;9.750;2023-07-31T04:45:14;100185.78;;;17.39;100.00
30636;BME280;17400;52.392;9.750;2023-07-31T04:47:43;100177.56;;;17.39;100.00
30636;BME280;17400;52.392;9.750;2023-07-31T04:50:11;100190.91;;;17.35;100.00
30636;BME280;17400;52.392;9.750;2023-07-31T04:52:42;100178.06;;;17.36;100.00
30636;BME280;17400;52.392;9.750;2023-07-31T04:55:10;100178.31;;;17.34;100.00
30636;BME280;17400;52.392;9.750;2023-07-31T04:57:38;100174.25;;;17.37;100.00
30636;BME280;17400;52.392;9.750;2023-07-31T05:00:07;100179.53;;;17.21;100.00
30636;BME280;17400;52.392;9.750;2023-07-31T05:02:36;100183.66;;;17.02;100.00
30636;BME280;17400;52.392;9.750;2023-07-31T05:05:04;100178.69;;;16.98;100.00
30636;BME280;17400;52.392;9.750;2023-07-31T05:07:32;100179.59;;;17.04;100.00
30636;BME280;17400;52.392;9.750;2023-07-31T05:10:06;100175.88;;;16.93;100.00
30636;BME280;17400;52.392;9.750;2023-07-31T05:12:34;100168.78;;;16.92;100.00
30636;BME280;17400;52.392;9.750;2023-07-31T05:15:02;100165.09;;;16.87;100.00
30636;BME280;17400;52.392;9.750;2023-07-31T05:17:30;100166.50;;;16.89;100.00
30636;BME280;17400;52.392;9.750;2023-07-31T05:19:58;100158.47;;;16.82;100.00
30636;BME280;17400;52.392;9.750;2023-07-31T05:22:26;100160.22;;;16.89;100.00
30636;BME280;17400;52.392;9.750;2023-07-31T05:24:54;100163.31;;;16.92;100.00
30636;BME280;17400;52.392;9.750;2023-07-31T05:27:24;100156.66;;;16.88;100.00
30636;BME280;17400;52.392;9.750;2023-07-31T05:29:52;100150.72;;;16.91;100.00
30636;BME280;17400;52.392;9.750;2023-07-31T05:32:20;100152.38;;;16.92;100.00
30636;BME280;17400;52.392;9.750;2023-07-31T05:34:50;100156.19;;;16.91;100.00
30636;BME280;17400;52.392;9.750;2023-07-31T05:37:18;100144.72;;;16.94;100.00
30636;BME280;17400;52.392;9.750;2023-07-31T05:39:46;100147.22;;;16.96;100.00
30636;BME280;17400;52.392;9.750;2023-07-31T05:42:14;100149.94;;;16.96;100.00
30636;BME280;17400;52.392;9.750;2023-07-31T05:44:43;100149.78;;;17.03;100.00
30636;BME280;17400;52.392;9.750;2023-07-31T05:47:11;100145.94;;;17.04;100.00
30636;BME280;17400;52.392;9.750;2023-07-31T05:49:39;100142.91;;;17.00;100.00
30636;BME280;17400;52.392;9.750;2023-07-31T05:52:07;100137.75;;;17.04;100.00
30636;BME280;17400;52.392;9.750;2023-07-31T05:54:35;100143.22;;;17.04;100.00
30636;BME280;17400;52.392;9.750;2023-07-31T05:57:03;100134.75;;;17.05;100.00
30636;BME280;17400;52.392;9.750;2023-07-31T05:59:31;100136.66;;;17.05;100.00
30636;BME280;17400;52.392;9.750;2023-07-31T06:02:01;100139.06;;;17.01;100.00
30636;BME280;17400;52.392;9.750;2023-07-31T06:04:29;100135.78;;;16.99;100.00
30636;BME280;17400;52.392;9.750;2023-07-31T06:06:57;100136.34;;;17.01;100.00
30636;BME280;17400;52.392;9.750;2023-07-31T06:09:24;100142.13;;;17.05;100.00
30636;BME280;17400;52.392;9.750;2023-07-31T06:11:53;100133.19;;;17.09;100.00
30636;BME280;17400;52.392;9.750;2023-07-31T06:14:21;100126.31;;;17.07;100.00
30636;BME280;17400;52.392;9.750;2023-07-31T06:16:49;100133.75;;;17.11;100.00
30636;BME280;17400;52.392;9.750;2023-07-31T06:19:19;100127.75;;;17.14;100.00
30636;BME280;17400;52.392;9.750;2023-07-31T06:21:47;100131.94;;;17.22;100.00
30636;BME280;17400;52.392;9.750;2023-07-31T06:24:15;100129.22;;;17.22;100.00
30636;BME280;17400;52.392;9.750;2023-07-31T06:26:46;100122.94;;;17.22;100.00
30636;BME280;17400;52.392;9.750;2023-07-31T06:29:14;100130.06;;;17.23;100.00
30636;BME280;17400;52.392;9.750;2023-07-31T06:31:42;100124.59;;;17.23;100.00
30636;BME280;17400;52.392;9.750;2023-07-31T06:34:10;100127.25;;;17.18;100.00
30636;BME280;17400;52.392;9.750;2023-07-31T06:36:40;100122.59;;;17.18;100.00
30636;BME280;17400;52.392;9.750;2023-07-31T06:39:08;100125.34;;;17.18;100.00
30636;BME280;17400;52.392;9.750;2023-07-31T06:41:37;100128.34;;;17.17;100.00
30636;BME280;17400;52.392;9.750;2023-07-31T06:44:05;100131.25;;;17.10;100.00
30636;BME280;17400;52.392;9.750;2023-07-31T06:46:33;100134.81;;;17.10;100.00
30636;BME280;17400;52.392;9.750;2023-07-31T06:49:01;100124.19;;;17.14;100.00
30636;BME280;17400;52.392;9.750;2023-07-31T06:51:29;100128.00;;;17.13;100.00
30636;BME280;17400;52.392;9.750;2023-07-31T06:54:00;100142.00;;;17.17;100.00
30636;BME280;17400;52.392;9.750;2023-07-31T06:56:28;100144.16;;;17.14;100.00
30636;BME280;17400;52.392;9.750;2023-07-31T06:58:56;100125.78;;;17.10;100.00
30636;BME280;17400;52.392;9.750;2023-07-31T07:01:24;100126.66;;;17.15;100.00
30636;BME280;17400;52.392;9.750;2023-07-31T07:03:52;100129.66;;;17.14;100.00
30636;BME280;17400;52.392;9.750;2023-07-31T07:06:22;100128.59;;;17.15;100.00
30636;BME280;17400;52.392;9.750;2023-07-31T07:08:50;100135.94;;;17.14;100.00
30636;BME280;17400;52.392;9.750;2023-07-31T07:11:19;100126.94;;;17.14;100.00
30636;BME280;17400;52.392;9.750;2023-07-31T07:13:47;100127.25;;;17.18;100.00
30636;BME280;17400;52.392;9.750;2023-07-31T07:16:15;100120.06;;;17.11;100.00
30636;BME280;17400;52.392;9.750;2023-07-31T07:18:43;100110.84;;;17.18;100.00
30636;BME280;17400;52.392;9.750;2023-07-31T07:21:24;100127.06;;;17.24;100.00
30636;BME280;17400;52.392;9.750;2023-07-31T07:23:52;100130.66;;;17.30;100.00
30636;BME280;17400;52.392;9.750;2023-07-31T07:26:21;100143.59;;;17.35;100.00
30636;BME280;17400;52.392;9.750;2023-07-31T07:28:50;100136.25;;;17.40;100.00
30636;BME280;17400;52.392;9.750;2023-07-31T07:31:18;100140.19;;;17.49;100.00
30636;BME280;17400;52.392;9.750;2023-07-31T07:33:46;100133.16;;;17.59;100.00
30636;BME280;17400;52.392;9.750;2023-07-31T07:36:14;100129.34;;;17.60;100.00
30636;BME280;17400;52.392;9.750;2023-07-31T07:38:42;100130.50;;;17.64;100.00
30636;BME280;17400;52.392;9.750;2023-07-31T07:41:13;100126.09;;;17.63;100.00
30636;BME280;17400;52.392;9.750;2023-07-31T07:43:42;100129.19;;;17.72;100.00
30636;BME280;17400;52.392;9.750;2023-07-31T07:46:10;100125.19;;;17.85;100.00
30636;BME280;17400;52.392;9.750;2023-07-31T07:48:38;100118.69;;;17.91;100.00
30636;BME280;17400;52.392;9.750;2023-07-31T07:51:06;100124.50;;;17.94;100.00
30636;BME280;17400;52.392;9.750;2023-07-31T07:53:35;100109.91;;;17.89;100.00
30636;BME280;17400;52.392;9.750;2023-07-31T07:56:03;100113.47;;;17.89;100.00
30636;BME280;17400;52.392;9.750;2023-07-31T07:58:31;100103.91;;;17.92;100.00
30636;BME280;17400;52.392;9.750;2023-07-31T08:01:00;100106.78;;;18.02;100.00
30636;BME280;17400;52.392;9.750;2023-07-31T08:03:28;100103.81;;;18.09;100.00
30636;BME280;17400;52.392;9.750;2023-07-31T08:05:58;100126.00;;;18.07;100.00
30636;BME280;17400;52.392;9.750;2023-07-31T08:08:26;100119.97;;;18.10;100.00
30636;BME280;17400;52.392;9.750;2023-07-31T08:10:54;100129.81;;;18.06;100.00
30636;BME280;17400;52.392;9.750;2023-07-31T08:13:22;100127.06;;;18.06;100.00
30636;BME280;17400;52.392;9.750;2023-07-31T08:15:50;100119.97;;;18.10;100.00
30636;BME280;17400;52.392;9.750;2023-07-31T08:18:19;100127.16;;;18.17;100.00
30636;BME280;17400;52.392;9.750;2023-07-31T08:20:47;100130.19;;;18.20;100.00
30636;BME280;17400;52.392;9.750;2023-07-31T08:23:15;100122.13;;;18.08;100.00
30636;BME280;17400;52.392;9.750;2023-07-31T08:25:44;100127.03;;;18.01;100.00
30636;BME280;17400;52.392;9.750;2023-07-31T08:28:13;100118.28;;;18.04;100.00
30636;BME280;17400;52.392;9.750;2023-07-31T08:30:41;100121.38;;;18.13;100.00
30636;BME280;17400;52.392;9.750;2023-07-31T08:33:09;100129.00;;;18.11;100.00
30636;BME280;17400;52.392;9.750;2023-07-31T08:35:38;100119.97;;;18.10;100.00
30636;BME280;17400;52.392;9.750;2023-07-31T08:38:06;100114.31;;;18.22;100.00
30636;BME280;17400;52.392;9.750;2023-07-31T08:40:36;100114.66;;;18.31;100.00
30636;BME280;17400;52.392;9.750;2023-07-31T08:43:04;100117.41;;;18.31;100.00
30636;BME280;17400;52.392;9.750;2023-07-31T08:45:32;100102.59;;;18.32;100.00
30636;BME280;17400;52.392;9.750;2023-07-31T08:48:00;100102.78;;;18.20;100.00
30636;BME280;17400;52.392;9.750;2023-07-31T08:50:28;100107.41;;;18.14;100.00
30636;BME280;17400;52.392;9.750;2023-07-31T08:52:57;100094.31;;;18.22;100.00
30636;BME280;17400;52.392;9.750;2023-07-31T08:55:26;100096.06;;;18.38;100.00
30636;BME280;17400;52.392;9.750;2023-07-31T08:57:56;100093.13;;;18.50;100.00
30636;BME280;17400;52.392;9.750;2023-07-31T09:00:25;100092.63;;;18.58;100.00
30636;BME280;17400;52.392;9.750;2023-07-31T09:02:56;100090.13;;;18.57;100.00
30636;BME280;17400;52.392;9.750;2023-07-31T09:05:26;100093.13;;;18.50;100.00
30636;BME280;17400;52.392;9.750;2023-07-31T09:07:55;100091.75;;;18.53;100.00
30636;BME280;17400;52.392;9.750;2023-07-31T09:10:25;100088.41;;;18.45;100.00
30636;BME280;17400;52.392;9.750;2023-07-31T09:12:57;100083.97;;;18.34;100.00
30636;BME280;17400;52.392;9.750;2023-07-31T09:15:27;100079.09;;;18.41;100.00
30636;BME280;17400;52.392;9.750;2023-07-31T09:18:07;100083.81;;;18.51;100.00
30636;BME280;17400;52.392;9.750;2023-07-31T09:20:36;100068.81;;;18.69;100.00
30636;BME280;17400;52.392;9.750;2023-07-31T09:23:08;100068.88;;;18.79;100.00
30636;BME280;17400;52.392;9.750;2023-07-31T09:25:39;100070.53;;;18.80;100.00
30636;BME280;17400;52.392;9.750;2023-07-31T09:28:08;100066.38;;;18.73;100.00
30636;BME280;17400;52.392;9.750;2023-07-31T09:30:45;100059.47;;;18.65;100.00
30636;BME280;17400;52.392;9.750;2023-07-31T09:33:15;100066.59;;;18.61;100.00
30636;BME280;17400;52.392;9.750;2023-07-31T09:35:45;100056.44;;;18.56;100.00
30636;BME280;17400;52.392;9.750;2023-07-31T09:38:16;100061.59;;;18.47;100.00
30636;BME280;17400;52.392;9.750;2023-07-31T09:40:48;100062.66;;;18.46;100.00
30636;BME280;17400;52.392;9.750;2023-07-31T09:43:17;100061.84;;;18.46;100.00
30636;BME280;17400;52.392;9.750;2023-07-31T09:45:46;100058.03;;;18.47;100.00
30636;BME280;17400;52.392;9.750;2023-07-31T09:48:15;100056.66;;;18.44;100.00
30636;BME280;17400;52.392;9.750;2023-07-31T09:50:46;100048.66;;;18.43;100.00
30636;BME280;17400;52.392;9.750;2023-07-31T09:53:16;100055.22;;;18.37;100.00
30636;BME280;17400;52.392;9.750;2023-07-31T09:55:46;100050.03;;;18.35;100.00
30636;BME280;17400;52.392;9.750;2023-07-31T09:58:14;100046.69;;;18.28;100.00
30636;BME280;17400;52.392;9.750;2023-07-31T10:00:41;100047.22;;;18.25;100.00
30636;BME280;17400;52.392;9.750;2023-07-31T10:03:10;100035.41;;;18.19;100.00
30636;BME280;17400;52.392;9.750;2023-07-31T10:05:40;100035.94;;;18.21;100.00
30636;BME280;17400;52.392;9.750;2023-07-31T10:08:13;100042.03;;;18.28;100.00
30636;BME280;17400;52.392;9.750;2023-07-31T10:10:43;100042.59;;;18.30;100.00
30636;BME280;17400;52.392;9.750;2023-07-31T10:13:13;100027.81;;;18.31;100.00
30636;BME280;17400;52.392;9.750;2023-07-31T10:15:42;100031.06;;;18.28;100.00
30636;BME280;17400;52.392;9.750;2023-07-31T10:18:11;100022.63;;;18.35;100.00
30636;BME280;17400;52.392;9.750;2023-07-31T10:20:40;100031.97;;;18.39;100.00
30636;BME280;17400;52.392;9.750;2023-07-31T10:23:08;100028.94;;;18.41;100.00
30636;BME280;17400;52.392;9.750;2023-07-31T10:25:36;100017.19;;;18.51;100.00
30636;BME280;17400;52.392;9.750;2023-07-31T10:28:06;100028.16;;;18.51;100.00
30636;BME280;17400;52.392;9.750;2023-07-31T10:30:35;100025.38;;;18.45;100.00
30636;BME280;17400;52.392;9.750;2023-07-31T10:33:05;100013.03;;;18.43;100.00
30636;BME280;17400;52.392;9.750;2023-07-31T10:35:33;100024.56;;;18.45;100.00
30636;BME280;17400;52.392;9.750;2023-07-31T10:38:09;100026.53;;;18.50;100.00
30636;BME280;17400;52.392;9.750;2023-07-31T10:40:39;100009.53;;;18.53;100.00
30636;BME280;17400;52.392;9.750;2023-07-31T10:43:08;100005.16;;;18.52;100.00
30636;BME280;17400;52.392;9.750;2023-07-31T10:45:42;100000.22;;;18.48;100.00
30636;BME280;17400;52.392;9.750;2023-07-31T10:48:13;99998.84;;;18.51;100.00
30636;BME280;17400;52.392;9.750;2023-07-31T10:50:47;100001.88;;;18.60;100.00
30636;BME280;17400;52.392;9.750;2023-07-31T10:53:22;99996.69;;;18.58;100.00
30636;BME280;17400;52.392;9.750;2023-07-31T10:55:51;99996.41;;;18.65;100.00
30636;BME280;17400;52.392;9.750;2023-07-31T10:58:20;99994.28;;;18.72;100.00
30636;BME280;17400;52.392;9.750;2023-07-31T11:00:49;99991.25;;;18.74;100.00
30636;BME280;17400;52.392;9.750;2023-07-31T11:03:19;99995.91;;;18.73;100.00
30636;BME280;17400;52.392;9.750;2023-07-31T11:05:51;99986.06;;;18.72;100.00
30636;BME280;17400;52.392;9.750;2023-07-31T11:08:21;99991.28;;;18.79;100.00
30636;BME280;17400;52.392;9.750;2023-07-31T11:11:04;99976.19;;;18.76;100.00
30636;BME280;17400;52.392;9.750;2023-07-31T11:13:33;99981.41;;;18.78;100.00
30636;BME280;17400;52.392;9.750;2023-07-31T11:16:03;99974.56;;;18.80;100.00
30636;BME280;17400;52.392;9.750;2023-07-31T11:18:32;99982.53;;;18.87;100.00
30636;BME280;17400;52.392;9.750;2023-07-31T11:21:00;99977.31;;;18.86;100.00
30636;BME280;17400;52.392;9.750;2023-07-31T11:23:28;99979.25;;;18.90;100.00
30636;BME280;17400;52.392;9.750;2023-07-31T11:25:59;99980.59;;;18.88;100.00
30636;BME280;17400;52.392;9.750;2023-07-31T11:28:31;99969.41;;;19.00;100.00
30636;BME280;17400;52.392;9.750;2023-07-31T11:31:02;99977.38;;;19.06;100.00
30636;BME280;17400;52.392;9.750;2023-07-31T11:33:30;99976.88;;;19.20;100.00
30636;BME280;17400;52.392;9.750;2023-07-31T11:35:58;99966.97;;;19.19;100.00
30636;BME280;17400;52.392;9.750;2023-07-31T11:38:28;99975.47;;;19.07;100.00
30636;BME280;17400;52.392;9.750;2023-07-31T11:40:58;99959.81;;;19.07;100.00
30636;BME280;17400;52.392;9.750;2023-07-31T11:43:26;99963.13;;;19.09;100.00
30636;BME280;17400;52.392;9.750;2023-07-31T11:45:57;99964.50;;;19.17;100.00
30636;BME280;17400;52.392;9.750;2023-07-31T11:48:28;99951.06;;;19.26;100.00
30636;BME280;17400;52.392;9.750;2023-07-31T11:51:01;99950.53;;;19.29;100.00
30636;BME280;17400;52.392;9.750;2023-07-31T11:53:35;99953.25;;;19.34;100.00
30636;BME280;17400;52.392;9.750;2023-07-31T11:56:05;99954.91;;;19.40;100.00
30636;BME280;17400;52.392;9.750;2023-07-31T11:58:34;99954.91;;;19.35;100.00
30636;BME280;17400;52.392;9.750;2023-07-31T12:01:04;99953.25;;;19.34;100.00
30636;BME280;17400;52.392;9.750;2023-07-31T12:03:34;99952.72;;;19.47;100.00
30636;BME280;17400;52.392;9.750;2023-07-31T12:06:02;99951.63;;;19.38;100.00
30636;BME280;17400;52.392;9.750;2023-07-31T12:08:31;99950.50;;;19.50;100.00
30636;BME280;17400;52.392;9.750;2023-07-31T12:11:02;99951.06;;;19.41;100.00
30636;BME280;17400;52.392;9.750;2023-07-31T12:13:32;99943.94;;;19.45;100.00
30636;BME280;17400;52.392;9.750;2023-07-31T12:16:01;99953.25;;;19.39;100.00
30636;BME280;17400;52.392;9.750;2023-07-31T12:18:35;99950.78;;;19.33;100.00
30636;BME280;17400;52.392;9.750;2023-07-31T12:21:05;99946.94;;;19.28;100.00
30636;BME280;17400;52.392;9.750;2023-07-31T12:23:35;99947.22;;;19.22;100.00
30636;BME280;17400;52.392;9.750;2023-07-31T12:26:05;99948.59;;;19.29;100.00
30636;BME280;17400;52.392;9.750;2023-07-31T12:28:35;99943.38;;;19.33;100.00
30636;BME280;17400;52.392;9.750;2023-07-31T12:31:04;99944.75;;;19.36;100.00
30636;BME280;17400;52.392;9.750;2023-07-31T12:33:35;99929.09;;;19.41;100.00
30636;BME280;17400;52.392;9.750;2023-07-31T12:36:08;99929.38;;;19.29;100.00
30636;BME280;17400;52.392;9.750;2023-07-31T12:38:37;99939.56;;;19.29;100.00
30636;BME280;17400;52.392;9.750;2023-07-31T12:41:05;99932.69;;;19.21;100.00
30636;BME280;17400;52.392;9.750;2023-07-31T12:43:34;99928.00;;;19.22;100.00
30636;BME280;17400;52.392;9.750;2023-07-31T12:46:02;99928.00;;;19.17;100.00
30636;BME280;17400;52.392;9.750;2023-07-31T12:48:31;99924.16;;;19.12;100.00
30636;BME280;17400;52.392;9.750;2023-07-31T12:51:01;99929.13;;;19.10;100.00